HORACE LAKE: From 06/18/2022 17:00 to 08/18/2022 03:00

Date LAKE ELEVATION [FT] PRECIPITATION INCREMENT [IN] AIR TEMPERATURE [F] RELATIVE HUMIDITY [%] RELEASE [CFS]
08/17/2022 22:00 655.25 0.00 64.5 90.0 --
08/17/2022 21:00 655.25 0.00 65.2 76.0 --
08/17/2022 20:00 655.24 0.00 67.0 65.0 --
08/17/2022 19:00 655.25 0.00 67.5 68.0 --
08/17/2022 18:00 655.24 0.00 68.1 68.0 --
08/17/2022 17:00 655.25 0.00 70.8 56.0 --
08/17/2022 16:00 655.25 0.00 70.1 59.0 --
08/17/2022 15:00 655.24 0.00 72.9 49.0 --
08/17/2022 14:00 655.26 0.00 75.1 47.0 --
08/17/2022 13:00 655.26 0.00 74.6 50.0 --
08/17/2022 12:00 655.25 0.00 73.4 57.0 --
08/17/2022 11:00 655.25 0.00 72.0 61.0 --
08/17/2022 10:00 655.25 0.00 68.1 68.0 --
08/17/2022 09:00 655.26 0.00 66.2 74.0 --
08/17/2022 08:00 655.25 0.00 66.3 72.0 --
08/17/2022 07:00 655.26 0.00 66.0 74.0 --
08/17/2022 06:00 655.25 0.00 65.1 75.0 --
08/17/2022 05:00 655.26 0.00 64.9 77.0 --
08/17/2022 04:00 655.26 0.00 64.4 78.0 --
08/17/2022 03:00 655.26 0.00 64.6 78.0 --
08/17/2022 02:00 655.26 0.00 64.2 81.0 --
08/17/2022 01:00 655.27 0.00 63.3 77.0 --
08/17/2022 00:00 655.26 0.00 63.2 76.0 --
08/16/2022 23:00 655.27 0.00 63.1 74.0 --
08/16/2022 22:00 655.26 0.00 65.8 66.0 --
08/16/2022 21:00 655.26 0.00 69.4 58.0 --
08/16/2022 20:00 655.25 0.00 73.7 48.0 --
08/16/2022 19:00 655.25 0.00 77.0 41.0 --
08/16/2022 18:00 655.26 0.00 79.4 35.0 --
08/16/2022 17:00 655.26 0.00 81.1 32.0 --
08/16/2022 16:00 655.28 0.00 79.7 35.0 --
08/16/2022 15:00 655.29 0.00 79.9 40.0 --
08/16/2022 14:00 655.28 0.00 77.5 43.0 --
08/16/2022 13:00 655.28 0.00 77.0 46.0 --
08/16/2022 12:00 655.28 0.00 74.9 52.0 --
08/16/2022 11:00 655.28 0.00 71.1 60.0 --
08/16/2022 10:00 655.28 0.00 65.8 76.0 --
08/16/2022 09:00 655.28 0.00 59.6 89.0 --
08/16/2022 08:00 655.28 0.00 54.9 100.0 --
08/16/2022 07:00 655.27 0.00 54.7 100.0 --
08/16/2022 06:00 655.28 0.00 55.3 100.0 --
08/16/2022 05:00 655.29 0.00 56.1 98.0 --
08/16/2022 04:00 655.28 0.00 57.1 93.0 --
08/16/2022 03:00 655.28 0.00 58.6 87.0 --
08/16/2022 02:00 655.28 0.00 60.1 82.0 --
08/16/2022 01:00 655.29 0.00 60.1 76.0 --
08/16/2022 00:00 655.28 0.00 60.6 75.0 --
08/15/2022 23:00 655.28 0.00 62.3 69.0 --
08/15/2022 22:00 655.29 0.00 65.2 61.0 --
08/15/2022 21:00 655.28 0.00 71.5 51.0 --
08/15/2022 20:00 655.29 0.00 74.6 44.0 --
08/15/2022 19:00 655.29 0.00 79.6 38.0 --
08/15/2022 18:00 655.29 0.00 81.5 34.0 --
08/15/2022 17:00 655.29 0.00 81.2 33.0 --
08/15/2022 16:00 655.29 0.00 79.9 30.0 --
08/15/2022 15:00 655.28 0.00 78.3 36.0 --
08/15/2022 14:00 655.29 0.00 76.1 43.0 --
08/15/2022 13:00 655.29 0.00 78.2 40.0 --
08/15/2022 12:00 655.29 0.00 74.6 49.0 --
08/15/2022 11:00 655.29 0.00 70.8 57.0 --
08/15/2022 10:00 655.29 0.00 64.1 78.0 --
08/15/2022 09:00 655.30 0.00 57.6 94.0 --
08/15/2022 08:00 655.29 0.00 54.2 100.0 --
08/15/2022 07:00 655.30 0.00 54.0 100.0 --
08/15/2022 06:00 655.31 0.00 54.5 100.0 --
08/15/2022 05:00 655.31 0.00 55.9 97.0 --
08/15/2022 04:00 655.30 0.00 56.2 94.0 --
08/15/2022 03:00 655.30 0.00 56.3 94.0 --
08/15/2022 02:00 655.30 0.00 57.2 88.0 --
08/15/2022 01:00 655.31 0.00 59.0 81.0 --
08/15/2022 00:00 655.30 0.00 59.3 80.0 --
08/14/2022 23:00 655.31 0.00 63.4 69.0 --
08/14/2022 22:00 655.30 0.00 65.3 69.0 --
08/14/2022 21:00 655.31 0.00 66.9 61.0 --
08/14/2022 20:00 655.30 0.00 74.2 47.0 --
08/14/2022 19:00 655.30 0.00 77.6 33.0 --
08/14/2022 18:00 655.31 0.00 77.7 35.0 --
08/14/2022 17:00 655.31 0.00 74.1 53.0 --
08/14/2022 16:00 655.30 0.00 76.3 35.0 --
08/14/2022 15:00 655.32 0.00 74.9 41.0 --
08/14/2022 14:00 655.31 0.00 74.6 44.0 --
08/14/2022 13:00 655.32 0.00 72.4 52.0 --
08/14/2022 12:00 655.31 0.00 72.1 52.0 --
08/14/2022 11:00 655.31 0.00 68.8 58.0 --
08/14/2022 10:00 655.31 0.00 66.9 67.0 --
08/14/2022 09:00 655.32 0.00 60.5 86.0 --
08/14/2022 08:00 655.32 0.00 56.7 99.0 --
08/14/2022 07:00 655.31 0.00 56.6 100.0 --
08/14/2022 06:00 655.32 0.00 56.7 98.0 --
08/14/2022 05:00 655.32 0.00 57.1 100.0 --
08/14/2022 04:00 655.32 0.00 57.1 100.0 --
08/14/2022 03:00 655.32 0.00 58.0 97.0 --
08/14/2022 02:00 655.31 0.00 59.3 93.0 --
08/14/2022 01:00 655.32 0.00 59.7 92.0 --
08/14/2022 00:00 655.32 0.00 60.9 86.0 --
08/13/2022 23:00 655.32 0.00 62.4 76.0 --
08/13/2022 22:00 655.32 0.00 64.3 71.0 --
08/13/2022 21:00 655.32 0.00 65.7 68.0 --
08/13/2022 20:00 655.32 0.00 69.8 57.0 --
08/13/2022 19:00 655.33 0.00 72.2 47.0 --
08/13/2022 18:00 655.30 0.00 72.8 48.0 --
08/13/2022 17:00 655.32 0.00 71.9 46.0 --
08/13/2022 16:00 655.33 0.00 70.3 52.0 --
08/13/2022 15:00 655.32 0.00 69.5 54.0 --
08/13/2022 14:00 655.33 0.00 71.4 45.0 --
08/13/2022 13:00 655.33 0.00 68.3 56.0 --
08/13/2022 12:00 655.33 0.00 67.4 55.0 --
08/13/2022 11:00 655.34 0.00 64.9 64.0 --
08/13/2022 10:00 655.33 0.00 62.5 70.0 --
08/13/2022 09:00 655.34 0.00 58.4 87.0 --
08/13/2022 08:00 655.34 0.00 55.6 95.0 --
08/13/2022 07:00 655.34 0.00 53.8 100.0 --
08/13/2022 06:00 655.32 0.00 56.1 91.0 --
08/13/2022 05:00 655.33 0.00 56.9 89.0 --
08/13/2022 04:00 655.34 0.00 55.9 89.0 --
08/13/2022 03:00 655.33 0.00 58.3 85.0 --
08/13/2022 02:00 655.33 0.00 56.5 85.0 --
08/13/2022 01:00 655.34 0.00 58.5 77.0 --
08/13/2022 00:00 655.33 0.00 60.5 75.0 --
08/12/2022 23:00 655.33 0.00 61.8 69.0 --
08/12/2022 22:00 655.33 0.00 63.3 62.0 --
08/12/2022 21:00 655.33 0.00 68.6 55.0 --
08/12/2022 20:00 655.34 0.00 70.7 47.0 --
08/12/2022 19:00 655.33 0.00 71.9 45.0 --
08/12/2022 18:00 655.33 0.00 71.9 50.0 --
08/12/2022 17:00 655.33 0.00 71.6 47.0 --
08/12/2022 16:00 655.34 0.00 70.8 49.0 --
08/12/2022 15:00 655.35 0.00 69.7 51.0 --
08/12/2022 14:00 655.36 0.00 68.1 57.0 --
08/12/2022 13:00 655.34 0.00 68.1 57.0 --
08/12/2022 12:00 655.36 0.00 68.0 55.0 --
08/12/2022 11:00 655.36 0.00 66.6 64.0 --
08/12/2022 10:00 655.35 0.00 64.2 69.0 --
08/12/2022 09:00 655.36 0.00 62.4 76.0 --
08/12/2022 08:00 655.36 0.00 62.0 83.0 --
08/12/2022 07:00 655.35 0.00 61.9 87.0 --
08/12/2022 06:00 655.35 0.00 63.6 84.0 --
08/12/2022 05:00 655.36 0.00 64.7 82.0 --
08/12/2022 04:00 655.35 0.00 65.9 82.0 --
08/12/2022 03:00 655.35 0.00 66.3 84.0 --
08/12/2022 02:00 655.35 0.00 67.6 79.0 --
08/12/2022 01:00 655.36 0.00 66.2 83.0 --
08/12/2022 00:00 655.36 0.00 69.1 76.0 --
08/11/2022 23:00 655.37 0.00 71.5 65.0 --
08/11/2022 22:00 655.37 0.00 73.3 63.0 --
08/11/2022 21:00 655.35 0.00 70.4 76.0 --
08/11/2022 20:00 655.35 0.00 75.7 61.0 --
08/11/2022 19:00 655.36 0.00 79.8 45.0 --
08/11/2022 18:00 655.37 0.00 79.8 46.0 --
08/11/2022 17:00 655.36 0.00 78.1 52.0 --
08/11/2022 16:00 655.36 0.00 77.9 48.0 --
08/11/2022 15:00 655.37 0.00 76.3 53.0 --
08/11/2022 14:00 655.36 0.00 76.1 51.0 --
08/11/2022 13:00 655.37 0.00 74.8 60.0 --
08/11/2022 12:00 655.36 0.00 74.3 64.0 --
08/11/2022 11:00 655.36 0.00 71.6 77.0 --
08/11/2022 10:00 655.37 0.00 70.8 91.0 --
08/11/2022 09:00 655.37 0.00 64.5 100.0 --
08/11/2022 08:00 655.36 0.00 62.7 100.0 --
08/11/2022 07:00 655.36 0.00 62.2 100.0 --
08/11/2022 06:00 655.37 0.00 62.6 100.0 --
08/11/2022 05:00 655.37 0.00 63.3 100.0 --
08/11/2022 04:00 655.37 0.00 63.0 100.0 --
08/11/2022 03:00 655.37 0.00 63.0 100.0 --
08/11/2022 02:00 655.36 0.00 64.3 100.0 --
08/11/2022 01:00 655.36 0.00 65.4 100.0 --
08/11/2022 00:00 655.37 0.00 64.7 100.0 --
08/10/2022 23:00 655.36 0.01 65.4 100.0 --
08/10/2022 22:00 655.37 0.00 66.5 97.0 --
08/10/2022 21:00 655.37 0.00 68.6 88.0 --
08/10/2022 20:00 655.37 0.00 72.3 79.0 --
08/10/2022 19:00 655.37 0.00 73.5 73.0 --
08/10/2022 18:00 655.37 0.00 75.1 67.0 --
08/10/2022 17:00 655.36 0.00 75.7 57.0 --
08/10/2022 16:00 655.37 0.00 75.9 59.0 --
08/10/2022 15:00 655.36 0.00 73.7 68.0 --
08/10/2022 14:00 655.38 0.00 72.6 67.0 --
08/10/2022 13:00 655.37 0.00 70.5 80.0 --
08/10/2022 12:00 655.37 0.00 71.1 79.0 --
08/10/2022 11:00 655.37 0.00 70.1 87.0 --
08/10/2022 10:00 655.37 0.00 68.6 97.0 --
08/10/2022 09:00 655.37 0.00 66.0 100.0 --
08/10/2022 08:00 655.36 0.00 65.5 100.0 --
08/10/2022 07:00 655.37 0.00 65.8 100.0 --
08/10/2022 06:00 655.37 0.00 65.5 100.0 --
08/10/2022 05:00 655.37 0.00 65.6 100.0 --
08/10/2022 04:00 655.37 0.00 66.0 100.0 --
08/10/2022 03:00 655.37 0.00 66.5 100.0 --
08/10/2022 02:00 655.36 0.00 66.4 100.0 --
08/10/2022 01:00 655.36 0.00 67.4 100.0 --
08/10/2022 00:00 655.37 0.00 69.3 100.0 --
08/09/2022 23:00 655.37 0.00 70.8 98.0 --
08/09/2022 22:00 655.37 0.00 75.7 77.0 --
08/09/2022 21:00 655.37 0.00 77.8 75.0 --
08/09/2022 20:00 655.36 0.00 83.6 57.0 --
08/09/2022 19:00 655.37 0.00 86.2 54.0 --
08/09/2022 18:00 655.37 0.00 85.1 59.0 --
08/09/2022 17:00 655.38 0.00 86.0 53.0 --
08/09/2022 16:00 655.38 0.00 85.2 60.0 --
08/09/2022 15:00 655.38 0.00 84.1 64.0 --
08/09/2022 14:00 655.38 0.00 83.3 70.0 --
08/09/2022 13:00 655.39 0.00 82.4 74.0 --
08/09/2022 12:00 655.38 0.00 82.8 72.0 --
08/09/2022 11:00 655.38 0.00 80.2 77.0 --
08/09/2022 10:00 655.38 0.00 78.5 84.0 --
08/09/2022 09:00 655.38 0.01 77.4 86.0 --
08/09/2022 08:00 655.38 0.00 74.4 100.0 --
08/09/2022 07:00 655.38 0.00 73.7 100.0 --
08/09/2022 06:00 655.37 0.00 74.7 100.0 --
08/09/2022 05:00 655.38 0.00 74.0 100.0 --
08/09/2022 04:00 655.38 0.00 73.3 100.0 --
08/09/2022 03:00 655.37 0.00 74.6 100.0 --
08/09/2022 02:00 655.38 0.00 75.1 100.0 --
08/09/2022 01:00 655.37 0.00 74.4 100.0 --
08/09/2022 00:00 655.37 0.31 74.5 100.0 --
08/08/2022 23:00 655.34 0.00 74.6 100.0 --
08/08/2022 22:00 655.33 0.00 74.1 100.0 --
08/08/2022 21:00 655.34 0.13 74.6 100.0 --
08/08/2022 20:00 655.33 0.00 87.7 59.0 --
08/08/2022 19:00 655.33 0.00 89.7 52.0 --
08/08/2022 18:00 655.34 0.00 91.3 50.0 --
08/08/2022 17:00 655.34 0.00 89.8 53.0 --
08/08/2022 16:00 655.35 0.00 89.4 52.0 --
08/08/2022 15:00 655.33 0.00 89.4 51.0 --
08/08/2022 14:00 655.34 0.00 87.6 55.0 --
08/08/2022 13:00 655.35 0.00 87.1 59.0 --
08/08/2022 12:00 655.34 0.00 85.0 64.0 --
08/08/2022 11:00 655.34 0.00 82.4 70.0 --
08/08/2022 10:00 655.35 0.00 79.6 75.0 --
08/08/2022 09:00 655.34 0.00 77.7 84.0 --
08/08/2022 08:00 655.35 0.00 75.1 91.0 --
08/08/2022 07:00 655.35 0.00 73.7 98.0 --
08/08/2022 06:00 655.34 0.00 72.8 95.0 --
08/08/2022 05:00 655.34 0.00 74.7 91.0 --
08/08/2022 04:00 655.34 0.00 76.0 91.0 --
08/08/2022 03:00 655.35 0.00 77.5 81.0 --
08/08/2022 02:00 655.33 0.00 77.6 82.0 --
08/08/2022 01:00 655.35 0.00 78.0 87.0 --
08/08/2022 00:00 655.35 0.00 73.7 100.0 --
08/07/2022 23:00 655.35 0.00 74.6 100.0 --
08/07/2022 22:00 655.34 0.00 73.9 100.0 --
08/07/2022 21:00 655.35 0.00 74.9 100.0 --
08/07/2022 20:00 655.34 0.00 81.8 75.0 --
08/07/2022 19:00 655.36 0.00 83.8 67.0 --
08/07/2022 18:00 655.35 0.00 83.0 91.0 --
08/07/2022 17:00 655.34 0.11 76.3 96.0 --
08/07/2022 16:00 655.33 0.00 80.3 73.0 --
08/07/2022 15:00 655.35 0.00 84.1 75.0 --
08/07/2022 14:00 655.35 0.09 79.5 87.0 --
08/07/2022 13:00 655.35 0.00 85.0 62.0 --
08/07/2022 12:00 655.34 0.00 83.3 67.0 --
08/07/2022 11:00 655.34 0.00 81.9 70.0 --
08/07/2022 10:00 655.34 0.00 78.8 82.0 --
08/07/2022 09:00 655.34 0.00 76.7 86.0 --
08/07/2022 08:00 655.35 0.00 75.8 89.0 --
08/07/2022 07:00 655.34 0.00 75.2 90.0 --
08/07/2022 06:00 655.34 0.00 76.1 89.0 --
08/07/2022 05:00 655.34 0.00 76.6 88.0 --
08/07/2022 04:00 655.35 0.00 77.6 84.0 --
08/07/2022 03:00 655.34 0.00 78.1 82.0 --
08/07/2022 02:00 655.35 0.00 78.1 83.0 --
08/07/2022 01:00 655.33 0.00 78.4 79.0 --
08/07/2022 00:00 655.35 0.00 78.0 81.0 --
08/06/2022 23:00 655.35 0.00 79.0 82.0 --
08/06/2022 22:00 655.34 0.00 78.5 100.0 --
08/06/2022 21:00 655.33 0.00 81.0 89.0 --
08/06/2022 20:00 655.34 0.00 81.3 81.0 --
08/06/2022 19:00 655.34 0.00 80.7 79.0 --
08/06/2022 18:00 655.34 0.00 78.4 80.0 --
08/06/2022 17:00 655.34 0.01 83.5 66.0 --
08/06/2022 16:00 655.35 0.00 83.8 72.0 --
08/06/2022 15:00 655.35 0.00 84.5 66.0 --
08/06/2022 14:00 655.34 0.00 81.1 75.0 --
08/06/2022 13:00 655.35 0.00 85.2 65.0 --
08/06/2022 12:00 655.35 0.00 84.8 68.0 --
08/06/2022 11:00 655.34 0.00 80.3 79.0 --
08/06/2022 10:00 655.34 0.00 78.6 84.0 --
08/06/2022 09:00 655.35 0.00 73.5 100.0 --
08/06/2022 08:00 655.35 0.00 70.6 100.0 --
08/06/2022 07:00 655.34 0.00 69.9 100.0 --
08/06/2022 06:00 655.35 0.00 70.1 100.0 --
08/06/2022 05:00 655.35 0.00 71.0 100.0 --
08/06/2022 04:00 655.35 0.00 70.0 100.0 --
08/06/2022 03:00 655.35 0.00 72.1 100.0 --
08/06/2022 02:00 655.34 0.00 72.4 100.0 --
08/06/2022 01:00 655.34 0.00 72.9 100.0 --
08/06/2022 00:00 655.35 0.00 73.4 100.0 --
08/05/2022 23:00 655.35 0.00 75.5 100.0 --
08/05/2022 22:00 655.35 0.00 75.6 100.0 --
08/05/2022 21:00 655.35 0.00 77.4 98.0 --
08/05/2022 20:00 655.35 0.00 82.4 77.0 --
08/05/2022 19:00 655.34 0.00 86.4 72.0 --
08/05/2022 18:00 655.35 0.01 80.8 93.0 --
08/05/2022 17:00 655.34 0.01 79.8 92.0 --
08/05/2022 16:00 655.35 0.00 85.2 59.0 --
08/05/2022 15:00 655.35 0.00 81.9 69.0 --
08/05/2022 14:00 655.35 0.00 81.6 69.0 --
08/05/2022 13:00 655.35 0.00 81.9 67.0 --
08/05/2022 12:00 655.35 0.00 81.4 68.0 --
08/05/2022 11:00 655.35 0.00 77.4 75.0 --
08/05/2022 10:00 655.35 0.00 77.5 74.0 --
08/05/2022 09:00 655.34 0.00 74.9 80.0 --
08/05/2022 08:00 655.36 0.00 72.8 87.0 --
08/05/2022 07:00 655.35 0.00 73.3 82.0 --
08/05/2022 06:00 655.35 0.00 73.0 84.0 --
08/05/2022 05:00 655.34 0.00 71.8 85.0 --
08/05/2022 04:00 655.35 0.00 71.1 89.0 --
08/05/2022 03:00 655.35 0.00 72.6 82.0 --
08/05/2022 02:00 655.34 0.00 74.1 77.0 --
08/05/2022 01:00 655.34 0.00 73.5 77.0 --
08/05/2022 00:00 655.36 0.00 74.5 75.0 --
08/04/2022 23:00 655.34 0.00 76.6 70.0 --
08/04/2022 22:00 655.36 0.00 79.2 62.0 --
08/04/2022 21:00 655.36 0.00 84.1 54.0 --
08/04/2022 20:00 655.36 0.00 85.8 59.0 --
08/04/2022 19:00 655.36 0.00 91.9 45.0 --
08/04/2022 18:00 655.35 0.00 90.7 45.0 --
08/04/2022 17:00 655.36 0.00 91.9 42.0 --
08/04/2022 16:00 655.36 0.00 89.9 43.0 --
08/04/2022 15:00 655.37 0.00 88.8 45.0 --
08/04/2022 14:00 655.36 0.00 86.7 51.0 --
08/04/2022 13:00 655.38 0.00 85.6 50.0 --
08/04/2022 12:00 655.37 0.00 84.3 53.0 --
08/04/2022 11:00 655.36 0.00 79.3 62.0 --
08/04/2022 10:00 655.35 0.00 75.9 80.0 --
08/04/2022 09:00 655.36 0.00 68.2 99.0 --
08/04/2022 08:00 655.37 0.00 65.4 100.0 --
08/04/2022 07:00 655.37 0.00 63.7 100.0 --
08/04/2022 06:00 655.37 0.00 63.1 100.0 --
08/04/2022 05:00 655.36 0.00 64.8 100.0 --
08/04/2022 04:00 655.37 0.00 65.8 100.0 --
08/04/2022 03:00 655.36 0.00 67.0 98.0 --
08/04/2022 02:00 655.36 0.00 67.7 94.0 --
08/04/2022 01:00 655.36 0.00 69.2 90.0 --
08/04/2022 00:00 655.36 0.00 68.8 86.0 --
08/03/2022 23:00 655.36 0.00 70.1 81.0 --
08/03/2022 22:00 655.36 0.00 71.3 74.0 --
08/03/2022 21:00 655.37 0.00 75.2 65.0 --
08/03/2022 20:00 655.36 0.00 83.6 45.0 --
08/03/2022 19:00 655.37 0.00 87.2 34.0 --
08/03/2022 18:00 655.37 0.00 84.6 35.0 --
08/03/2022 17:00 655.37 0.00 83.6 35.0 --
08/03/2022 16:00 655.38 0.00 82.9 37.0 --
08/03/2022 15:00 655.38 0.00 81.7 38.0 --
08/03/2022 14:00 655.38 0.00 79.2 38.0 --
08/03/2022 13:00 655.38 0.00 76.3 44.0 --
08/03/2022 12:00 655.37 0.00 74.3 51.0 --
08/03/2022 11:00 655.38 0.00 71.9 57.0 --
08/03/2022 10:00 655.38 0.00 69.6 63.0 --
08/03/2022 09:00 655.38 0.00 67.7 74.0 --
08/03/2022 08:00 655.38 0.00 64.9 83.0 --
08/03/2022 07:00 655.37 0.00 65.7 83.0 --
08/03/2022 06:00 655.38 0.00 68.2 79.0 --
08/03/2022 05:00 655.38 0.00 67.4 89.0 --
08/03/2022 04:00 655.38 0.00 67.9 89.0 --
08/03/2022 03:00 655.38 0.00 68.3 88.0 --
08/03/2022 02:00 655.38 0.00 68.7 82.0 --
08/03/2022 01:00 655.38 0.00 71.6 74.0 --
08/03/2022 00:00 655.38 0.00 74.7 68.0 --
08/02/2022 23:00 655.38 0.00 76.0 64.0 --
08/02/2022 22:00 655.38 0.00 73.1 77.0 --
08/02/2022 21:00 655.38 0.00 80.0 58.0 --
08/02/2022 20:00 655.37 0.00 83.1 54.0 --
08/02/2022 19:00 655.38 0.00 85.1 53.0 --
08/02/2022 18:00 655.38 0.00 84.6 49.0 --
08/02/2022 17:00 655.38 0.00 84.2 54.0 --
08/02/2022 16:00 655.40 0.00 82.4 60.0 --
08/02/2022 15:00 655.41 0.00 82.6 58.0 --
08/02/2022 14:00 655.39 0.00 81.7 58.0 --
08/02/2022 13:00 655.39 0.00 80.7 58.0 --
08/02/2022 12:00 655.40 0.00 78.9 65.0 --
08/02/2022 11:00 655.40 0.00 76.3 71.0 --
08/02/2022 10:00 655.39 0.00 72.7 81.0 --
08/02/2022 09:00 655.39 0.00 69.3 98.0 --
08/02/2022 08:00 655.39 0.00 64.0 100.0 --
08/02/2022 07:00 655.39 0.00 64.8 100.0 --
08/02/2022 06:00 655.40 0.00 64.9 100.0 --
08/02/2022 05:00 655.39 0.00 65.3 100.0 --
08/02/2022 04:00 655.39 0.00 67.9 100.0 --
08/02/2022 03:00 655.39 0.00 68.0 100.0 --
08/02/2022 02:00 655.39 0.00 68.1 100.0 --
08/02/2022 01:00 655.40 0.00 68.8 99.0 --
08/02/2022 00:00 655.39 0.00 69.2 94.0 --
08/01/2022 23:00 655.40 0.00 69.9 87.0 --
08/01/2022 22:00 655.39 0.00 71.5 78.0 --
08/01/2022 21:00 655.39 0.00 74.7 68.0 --
08/01/2022 20:00 655.40 0.00 80.7 52.0 --
08/01/2022 19:00 655.40 0.00 82.4 49.0 --
08/01/2022 18:00 655.40 0.00 81.7 48.0 --
08/01/2022 17:00 655.40 0.00 82.1 49.0 --
08/01/2022 16:00 655.39 0.00 79.7 51.0 --
08/01/2022 15:00 655.36 0.00 79.9 52.0 --
08/01/2022 14:00 655.40 0.00 78.8 53.0 --
08/01/2022 13:00 655.41 0.00 77.1 55.0 --
08/01/2022 12:00 655.42 0.00 76.0 63.0 --
08/01/2022 11:00 655.41 0.00 75.3 67.0 --
08/01/2022 10:00 655.41 0.00 72.9 72.0 --
08/01/2022 09:00 655.41 0.00 68.7 88.0 --
08/01/2022 08:00 655.40 0.00 66.6 92.0 --
08/01/2022 07:00 655.41 0.00 64.8 98.0 --
08/01/2022 06:00 655.41 0.00 65.8 94.0 --
08/01/2022 05:00 655.41 0.00 65.0 96.0 --
08/01/2022 04:00 655.41 0.00 65.8 90.0 --
08/01/2022 03:00 655.41 0.00 66.6 89.0 --
08/01/2022 02:00 655.40 0.00 67.5 87.0 --
08/01/2022 01:00 655.40 0.00 66.9 92.0 --
08/01/2022 00:00 655.40 0.00 67.7 90.0 --
07/31/2022 23:00 655.40 0.00 68.7 90.0 --
07/31/2022 22:00 655.41 0.00 70.6 83.0 --
07/31/2022 21:00 655.40 0.00 73.1 76.0 --
07/31/2022 20:00 655.41 0.00 78.5 60.0 --
07/31/2022 19:00 655.42 0.00 80.4 56.0 --
07/31/2022 18:00 655.42 0.00 80.4 51.0 --
07/31/2022 17:00 655.42 0.00 79.7 49.0 --
07/31/2022 16:00 655.42 0.00 79.2 51.0 --
07/31/2022 15:00 655.41 0.00 78.5 50.0 --
07/31/2022 14:00 655.42 0.00 77.6 52.0 --
07/31/2022 13:00 655.43 0.00 77.9 51.0 --
07/31/2022 12:00 655.42 0.00 74.7 58.0 --
07/31/2022 11:00 655.43 0.00 72.1 64.0 --
07/31/2022 10:00 655.42 0.00 69.6 71.0 --
07/31/2022 09:00 655.42 0.00 66.0 82.0 --
07/31/2022 08:00 655.43 0.00 61.3 99.0 --
07/31/2022 07:00 655.43 0.00 59.5 100.0 --
07/31/2022 06:00 655.42 0.00 60.8 100.0 --
07/31/2022 05:00 655.43 0.00 61.8 100.0 --
07/31/2022 04:00 655.43 0.00 61.4 100.0 --
07/31/2022 03:00 655.42 0.00 61.3 100.0 --
07/31/2022 02:00 655.43 0.00 63.4 93.0 --
07/31/2022 01:00 655.43 0.00 63.1 90.0 --
07/31/2022 00:00 655.41 0.00 64.3 85.0 --
07/30/2022 23:00 655.43 0.00 65.1 82.0 --
07/30/2022 22:00 655.42 0.00 67.5 76.0 --
07/30/2022 21:00 655.43 0.00 72.7 61.0 --
07/30/2022 20:00 655.43 0.00 76.2 54.0 --
07/30/2022 19:00 655.43 0.00 76.6 51.0 --
07/30/2022 18:00 655.42 0.00 76.7 51.0 --
07/30/2022 17:00 655.44 0.00 76.6 49.0 --
07/30/2022 16:00 655.43 0.00 75.8 50.0 --
07/30/2022 15:00 655.42 0.00 74.9 52.0 --
07/30/2022 14:00 655.41 0.00 75.0 52.0 --
07/30/2022 13:00 655.44 0.00 74.5 49.0 --
07/30/2022 12:00 655.44 0.00 74.1 50.0 --
07/30/2022 11:00 655.44 0.00 73.1 54.0 --
07/30/2022 10:00 655.45 0.00 71.6 57.0 --
07/30/2022 09:00 655.44 0.00 69.6 64.0 --
07/30/2022 08:00 655.44 0.00 64.8 81.0 --
07/30/2022 07:00 655.43 0.00 68.1 64.0 --
07/30/2022 06:00 655.44 0.00 68.2 74.0 --
07/30/2022 05:00 655.45 0.00 69.0 68.0 --
07/30/2022 04:00 655.45 0.00 67.0 86.0 --
07/30/2022 03:00 655.45 0.00 67.2 89.0 --
07/30/2022 02:00 655.44 0.00 66.6 91.0 --
07/30/2022 01:00 655.44 0.00 66.1 96.0 --
07/30/2022 00:00 655.43 0.00 69.1 84.0 --
07/29/2022 23:00 655.44 0.00 70.2 81.0 --
07/29/2022 22:00 655.43 0.00 69.8 80.0 --
07/29/2022 21:00 655.44 0.00 73.5 71.0 --
07/29/2022 20:00 655.44 0.00 81.5 48.0 --
07/29/2022 19:00 655.44 0.00 82.2 43.0 --
07/29/2022 18:00 655.45 0.00 82.5 41.0 --
07/29/2022 17:00 655.45 0.00 81.7 43.0 --
07/29/2022 16:00 655.44 0.00 81.2 41.0 --
07/29/2022 15:00 655.45 0.00 80.2 45.0 --
07/29/2022 14:00 655.46 0.00 78.9 55.0 --
07/29/2022 13:00 655.44 0.00 77.1 60.0 --
07/29/2022 12:00 655.45 0.00 76.3 62.0 --
07/29/2022 11:00 655.44 0.00 74.3 76.0 --
07/29/2022 10:00 655.44 0.01 72.0 85.0 --
07/29/2022 09:00 655.45 0.00 69.2 100.0 --
07/29/2022 08:00 655.44 0.00 67.2 100.0 --
07/29/2022 07:00 655.43 0.00 66.2 100.0 --
07/29/2022 06:00 655.44 0.00 66.5 100.0 --
07/29/2022 05:00 655.43 0.00 67.6 100.0 --
07/29/2022 04:00 655.44 0.00 70.1 100.0 --
07/29/2022 03:00 655.44 0.00 71.0 100.0 --
07/29/2022 02:00 655.44 0.00 71.6 100.0 --
07/29/2022 01:00 655.44 0.00 71.4 100.0 --
07/29/2022 00:00 655.43 0.00 71.5 100.0 --
07/28/2022 23:00 655.42 0.00 71.0 100.0 --
07/28/2022 22:00 655.43 0.00 71.0 100.0 --
07/28/2022 21:00 655.44 0.69 71.6 100.0 --
07/28/2022 20:00 655.35 0.00 81.4 71.0 --
07/28/2022 19:00 655.35 0.00 82.6 70.0 --
07/28/2022 18:00 655.34 0.00 83.7 64.0 --
07/28/2022 17:00 655.34 0.00 85.2 57.0 --
07/28/2022 16:00 655.36 0.00 84.5 62.0 --
07/28/2022 15:00 655.36 0.00 83.6 59.0 --
07/28/2022 14:00 655.35 0.00 81.9 63.0 --
07/28/2022 13:00 655.35 0.00 81.1 63.0 --
07/28/2022 12:00 655.36 0.00 78.4 67.0 --
07/28/2022 11:00 655.35 0.00 72.1 77.0 --
07/28/2022 10:00 655.35 0.00 67.3 91.0 --
07/28/2022 09:00 655.36 0.00 66.0 93.0 --
07/28/2022 08:00 655.35 0.00 63.6 99.0 --
07/28/2022 07:00 655.35 0.00 60.5 100.0 --
07/28/2022 06:00 655.35 0.00 62.4 100.0 --
07/28/2022 05:00 655.35 0.00 62.9 98.0 --
07/28/2022 04:00 655.36 0.00 63.7 93.0 --
07/28/2022 03:00 655.36 0.00 64.2 93.0 --
07/28/2022 02:00 655.36 0.00 63.6 96.0 --
07/28/2022 01:00 655.35 0.00 64.8 92.0 --
07/28/2022 00:00 655.35 0.00 66.3 88.0 --
07/27/2022 23:00 655.36 0.00 66.5 83.0 --
07/27/2022 22:00 655.35 0.00 68.2 76.0 --
07/27/2022 21:00 655.36 0.00 71.8 67.0 --
07/27/2022 20:00 655.35 0.00 78.1 48.0 --
07/27/2022 19:00 655.36 0.00 78.4 45.0 --
07/27/2022 18:00 655.36 0.00 78.0 47.0 --
07/27/2022 17:00 655.37 0.00 78.0 44.0 --
07/27/2022 16:00 655.36 0.00 78.7 41.0 --
07/27/2022 15:00 655.36 0.00 76.1 44.0 --
07/27/2022 14:00 655.37 0.00 75.0 47.0 --
07/27/2022 13:00 655.36 0.00 73.9 49.0 --
07/27/2022 12:00 655.36 0.00 72.3 53.0 --
07/27/2022 11:00 655.37 0.00 70.7 58.0 --
07/27/2022 10:00 655.37 0.00 68.6 64.0 --
07/27/2022 09:00 655.37 0.00 64.4 73.0 --
07/27/2022 08:00 655.37 0.00 61.3 86.0 --
07/27/2022 07:00 655.37 0.00 60.1 94.0 --
07/27/2022 06:00 655.37 0.00 60.5 95.0 --
07/27/2022 05:00 655.37 0.00 58.7 100.0 --
07/27/2022 04:00 655.36 0.00 58.8 100.0 --
07/27/2022 03:00 655.37 0.00 59.1 100.0 --
07/27/2022 02:00 655.36 0.00 60.8 92.0 --
07/27/2022 01:00 655.37 0.00 63.8 83.0 --
07/27/2022 00:00 655.37 0.00 64.2 78.0 --
07/26/2022 23:00 655.37 0.00 62.3 93.0 --
07/26/2022 22:00 655.36 0.00 63.6 84.0 --
07/26/2022 21:00 655.37 0.00 68.4 71.0 --
07/26/2022 20:00 655.37 0.00 74.0 54.0 --
07/26/2022 19:00 655.37 0.00 73.6 51.0 --
07/26/2022 18:00 655.38 0.00 74.5 52.0 --
07/26/2022 17:00 655.37 0.00 75.0 50.0 --
07/26/2022 16:00 655.37 0.00 74.8 51.0 --
07/26/2022 15:00 655.37 0.00 74.0 54.0 --
07/26/2022 14:00 655.37 0.00 73.0 56.0 --
07/26/2022 13:00 655.36 0.00 74.1 53.0 --
07/26/2022 12:00 655.37 0.00 71.2 58.0 --
07/26/2022 11:00 655.37 0.00 69.5 65.0 --
07/26/2022 10:00 655.38 0.00 67.0 68.0 --
07/26/2022 09:00 655.37 0.00 64.4 76.0 --
07/26/2022 08:00 655.38 0.00 60.3 90.0 --
07/26/2022 07:00 655.37 0.00 58.4 100.0 --
07/26/2022 06:00 655.37 0.00 59.4 100.0 --
07/26/2022 05:00 655.38 0.00 57.5 100.0 --
07/26/2022 04:00 655.37 0.00 59.3 100.0 --
07/26/2022 03:00 655.37 0.00 59.3 100.0 --
07/26/2022 02:00 655.36 0.00 59.9 100.0 --
07/26/2022 01:00 655.37 0.00 61.7 100.0 --
07/26/2022 00:00 655.38 0.00 63.3 100.0 --
07/25/2022 23:00 655.37 0.00 65.0 100.0 --
07/25/2022 22:00 655.37 0.00 69.5 100.0 --
07/25/2022 21:00 655.37 0.00 73.4 100.0 --
07/25/2022 20:00 655.38 0.00 75.9 97.0 --
07/25/2022 19:00 655.39 0.00 78.0 76.0 --
07/25/2022 18:00 655.39 0.05 74.6 91.0 --
07/25/2022 17:00 655.37 0.00 81.7 73.0 --
07/25/2022 16:00 655.37 0.00 78.7 80.0 --
07/25/2022 15:00 655.38 0.03 75.9 90.0 --
07/25/2022 14:00 655.36 0.00 74.8 100.0 --
07/25/2022 13:00 655.37 0.00 74.8 97.0 --
07/25/2022 12:00 655.37 0.01 72.6 100.0 --
07/25/2022 11:00 655.37 0.04 72.2 100.0 --
07/25/2022 10:00 655.37 0.00 74.0 87.0 --
07/25/2022 09:00 655.37 0.00 77.1 85.0 --
07/25/2022 08:00 655.36 0.00 73.0 86.0 --
07/25/2022 07:00 655.36 0.00 71.7 88.0 --
07/25/2022 06:00 655.37 0.00 71.9 89.0 --
07/25/2022 05:00 655.36 0.00 72.3 81.0 --
07/25/2022 04:00 655.36 0.00 75.4 73.0 --
07/25/2022 03:00 655.37 0.00 75.6 72.0 --
07/25/2022 02:00 655.37 0.00 74.5 75.0 --
07/25/2022 01:00 655.36 0.01 71.3 94.0 --
07/25/2022 00:00 655.35 0.02 71.3 100.0 --
07/24/2022 23:00 655.37 0.00 79.1 67.0 --
07/24/2022 22:00 655.36 0.00 85.9 54.0 --
07/24/2022 21:00 655.36 0.00 86.2 49.0 --
07/24/2022 20:00 655.36 0.00 88.3 47.0 --
07/24/2022 19:00 655.37 0.00 89.0 41.0 --
07/24/2022 18:00 655.38 0.00 90.8 37.0 --
07/24/2022 17:00 655.37 0.00 90.6 36.0 --
07/24/2022 16:00 655.40 0.00 88.7 44.0 --
07/24/2022 15:00 655.38 0.00 88.3 40.0 --
07/24/2022 14:00 655.39 0.00 88.3 41.0 --
07/24/2022 13:00 655.39 0.00 87.6 48.0 --
07/24/2022 12:00 655.38 0.00 85.8 54.0 --
07/24/2022 11:00 655.37 0.00 82.5 56.0 --
07/24/2022 10:00 655.37 0.00 79.7 69.0 --
07/24/2022 09:00 655.37 0.00 72.7 87.0 --
07/24/2022 08:00 655.38 0.00 68.4 96.0 --
07/24/2022 07:00 655.38 0.00 68.9 91.0 --
07/24/2022 06:00 655.38 0.00 69.1 89.0 --
07/24/2022 05:00 655.38 0.00 69.5 88.0 --
07/24/2022 04:00 655.39 0.00 70.5 90.0 --
07/24/2022 03:00 655.38 0.00 70.4 91.0 --
07/24/2022 02:00 655.37 0.00 71.6 88.0 --
07/24/2022 01:00 655.38 0.00 71.2 87.0 --
07/24/2022 00:00 655.37 0.00 73.5 81.0 --
07/23/2022 23:00 655.39 0.00 74.8 78.0 --
07/23/2022 22:00 655.38 0.00 76.9 73.0 --
07/23/2022 21:00 655.38 0.00 78.4 65.0 --
07/23/2022 20:00 655.38 0.00 88.0 45.0 --
07/23/2022 19:00 655.38 0.00 89.5 34.0 --
07/23/2022 18:00 655.39 0.00 89.2 35.0 --
07/23/2022 17:00 655.39 0.00 89.0 33.0 --
07/23/2022 16:00 655.38 0.00 88.3 32.0 --
07/23/2022 15:00 655.39 0.00 87.5 35.0 --
07/23/2022 14:00 655.40 0.00 86.0 40.0 --
07/23/2022 13:00 655.39 0.00 83.7 47.0 --
07/23/2022 12:00 655.39 0.00 81.9 54.0 --
07/23/2022 11:00 655.39 0.00 80.0 58.0 --
07/23/2022 10:00 655.40 0.00 78.2 68.0 --
07/23/2022 09:00 655.40 0.00 72.1 78.0 --
07/23/2022 08:00 655.39 0.00 66.9 99.0 --
07/23/2022 07:00 655.40 0.00 66.1 100.0 --
07/23/2022 06:00 655.38 0.00 66.9 96.0 --
07/23/2022 05:00 655.40 0.00 68.8 90.0 --
07/23/2022 04:00 655.39 0.00 70.5 84.0 --
07/23/2022 03:00 655.40 0.00 68.6 94.0 --
07/23/2022 02:00 655.40 0.00 70.5 88.0 --
07/23/2022 01:00 655.39 0.00 71.5 83.0 --
07/23/2022 00:00 655.41 0.00 72.6 81.0 --
07/22/2022 23:00 655.39 0.00 72.7 82.0 --
07/22/2022 22:00 655.40 0.00 74.8 75.0 --
07/22/2022 21:00 655.41 0.00 76.9 71.0 --
07/22/2022 20:00 655.40 0.00 86.0 45.0 --
07/22/2022 19:00 655.41 0.00 87.3 38.0 --
07/22/2022 18:00 655.41 0.00 87.2 36.0 --
07/22/2022 17:00 655.40 0.00 86.3 43.0 --
07/22/2022 16:00 655.42 0.00 86.1 45.0 --
07/22/2022 15:00 655.40 0.00 84.1 49.0 --
07/22/2022 14:00 655.42 0.00 83.3 52.0 --
07/22/2022 13:00 655.42 0.00 82.2 51.0 --
07/22/2022 12:00 655.42 0.00 80.7 59.0 --
07/22/2022 11:00 655.41 0.00 78.1 61.0 --
07/22/2022 10:00 655.41 0.00 75.3 73.0 --
07/22/2022 09:00 655.41 0.00 72.8 91.0 --
07/22/2022 08:00 655.41 0.00 66.4 100.0 --
07/22/2022 07:00 655.41 0.00 65.2 100.0 --
07/22/2022 06:00 655.42 0.00 64.9 100.0 --
07/22/2022 05:00 655.41 0.00 68.8 100.0 --
07/22/2022 04:00 655.41 0.00 69.8 91.0 --
07/22/2022 03:00 655.42 0.00 72.3 83.0 --
07/22/2022 02:00 655.43 0.00 73.2 88.0 --
07/22/2022 01:00 655.42 0.00 68.0 100.0 --
07/22/2022 00:00 655.42 0.00 72.7 89.0 --
07/21/2022 23:00 655.41 0.00 71.8 91.0 --
07/21/2022 22:00 655.40 0.00 74.7 80.0 --
07/21/2022 21:00 655.43 0.00 77.6 71.0 --
07/21/2022 20:00 655.44 0.00 75.9 75.0 --
07/21/2022 19:00 655.43 0.00 76.9 86.0 --
07/21/2022 18:00 655.42 0.05 78.8 76.0 --
07/21/2022 17:00 655.43 0.01 75.6 78.0 --
07/21/2022 16:00 655.40 0.00 89.8 54.0 --
07/21/2022 15:00 655.42 0.00 87.9 55.0 --
07/21/2022 14:00 655.41 0.00 86.8 58.0 --
07/21/2022 13:00 655.43 0.00 85.1 61.0 --
07/21/2022 12:00 655.42 0.00 85.4 61.0 --
07/21/2022 11:00 655.42 0.00 82.8 66.0 --
07/21/2022 10:00 655.41 0.00 79.9 76.0 --
07/21/2022 09:00 655.43 0.00 76.2 85.0 --
07/21/2022 08:00 655.42 0.00 71.3 100.0 --
07/21/2022 07:00 655.42 0.00 70.4 100.0 --
07/21/2022 06:00 655.42 0.00 70.5 100.0 --
07/21/2022 05:00 655.41 0.00 70.9 100.0 --
07/21/2022 04:00 655.41 0.00 71.5 100.0 --
07/21/2022 03:00 655.42 0.00 72.2 100.0 --
07/21/2022 02:00 655.42 0.00 72.2 100.0 --
07/21/2022 01:00 655.41 0.00 73.7 100.0 --
07/21/2022 00:00 655.42 0.00 74.6 99.0 --
07/20/2022 23:00 655.42 0.00 76.1 94.0 --
07/20/2022 22:00 655.42 0.00 78.1 88.0 --
07/20/2022 21:00 655.42 0.00 79.0 78.0 --
07/20/2022 20:00 655.42 0.00 83.3 67.0 --
07/20/2022 19:00 655.43 0.00 90.6 46.0 --
07/20/2022 18:00 655.43 0.00 90.2 40.0 --
07/20/2022 17:00 655.42 0.00 89.1 44.0 --
07/20/2022 16:00 655.43 0.00 88.0 53.0 --
07/20/2022 15:00 655.43 0.00 86.8 51.0 --
07/20/2022 14:00 655.43 0.00 85.2 55.0 --
07/20/2022 13:00 655.43 0.00 84.8 55.0 --
07/20/2022 12:00 655.43 0.00 82.6 63.0 --
07/20/2022 11:00 655.43 0.00 80.8 67.0 --
07/20/2022 10:00 655.43 0.00 79.0 74.0 --
07/20/2022 09:00 655.42 0.00 75.2 86.0 --
07/20/2022 08:00 655.44 0.00 72.2 93.0 --
07/20/2022 07:00 655.43 0.00 68.8 100.0 --
07/20/2022 06:00 655.44 0.00 68.8 100.0 --
07/20/2022 05:00 655.44 0.00 68.2 100.0 --
07/20/2022 04:00 655.43 0.00 69.7 99.0 --
07/20/2022 03:00 655.44 0.00 68.9 97.0 --
07/20/2022 02:00 655.43 0.00 70.4 94.0 --
07/20/2022 01:00 655.42 0.00 71.0 88.0 --
07/20/2022 00:00 655.43 0.00 77.2 66.0 --
07/19/2022 23:00 655.43 0.00 79.0 64.0 --
07/19/2022 22:00 655.44 0.00 81.1 60.0 --
07/19/2022 21:00 655.43 0.00 82.5 59.0 --
07/19/2022 20:00 655.44 0.00 84.6 51.0 --
07/19/2022 19:00 655.43 0.00 85.3 49.0 --
07/19/2022 18:00 655.45 0.00 85.4 49.0 --
07/19/2022 17:00 655.42 0.00 85.0 51.0 --
07/19/2022 16:00 655.43 0.00 84.4 52.0 --
07/19/2022 15:00 655.46 0.00 83.8 51.0 --
07/19/2022 14:00 655.46 0.00 83.4 54.0 --
07/19/2022 13:00 655.46 0.00 80.5 59.0 --
07/19/2022 12:00 655.44 0.00 78.4 65.0 --
07/19/2022 11:00 655.46 0.00 76.4 68.0 --
07/19/2022 10:00 655.45 0.00 74.6 70.0 --
07/19/2022 09:00 655.45 0.00 72.7 78.0 --
07/19/2022 08:00 655.46 0.00 70.6 99.0 --
07/19/2022 07:00 655.46 0.00 71.1 92.0 --
07/19/2022 06:00 655.46 0.00 71.5 95.0 --
07/19/2022 05:00 655.46 0.01 71.6 96.0 --
07/19/2022 04:00 655.47 0.00 71.8 99.0 --
07/19/2022 03:00 655.47 0.00 72.8 100.0 --
07/19/2022 02:00 655.45 0.07 73.9 100.0 --
07/19/2022 01:00 655.45 0.05 73.3 100.0 --
07/19/2022 00:00 655.44 0.04 73.3 100.0 --
07/18/2022 23:00 655.45 0.00 74.2 100.0 --
07/18/2022 22:00 655.44 0.00 73.2 100.0 --
07/18/2022 21:00 655.45 0.00 73.2 100.0 --
07/18/2022 20:00 655.44 0.00 73.4 100.0 --
07/18/2022 19:00 655.44 0.04 73.5 100.0 --
07/18/2022 18:00 655.44 0.03 73.8 100.0 --
07/18/2022 17:00 655.45 0.31 73.2 100.0 --
07/18/2022 16:00 655.42 0.03 73.9 100.0 --
07/18/2022 15:00 655.42 0.00 74.7 100.0 --
07/18/2022 14:00 655.41 0.01 74.9 94.0 --
07/18/2022 13:00 655.40 0.00 75.1 88.0 --
07/18/2022 12:00 655.41 0.00 77.9 77.0 --
07/18/2022 11:00 655.41 0.00 77.2 75.0 --
07/18/2022 10:00 655.40 0.00 73.1 92.0 --
07/18/2022 09:00 655.41 0.00 70.6 100.0 --
07/18/2022 08:00 655.41 0.00 66.6 100.0 --
07/18/2022 07:00 655.40 0.00 65.4 100.0 --
07/18/2022 06:00 655.41 0.00 67.8 100.0 --
07/18/2022 05:00 655.41 0.00 68.4 100.0 --
07/18/2022 04:00 655.41 0.00 68.8 99.0 --
07/18/2022 03:00 655.41 0.00 69.1 93.0 --
07/18/2022 02:00 655.41 0.00 70.8 83.0 --
07/18/2022 01:00 655.41 0.00 73.2 78.0 --
07/18/2022 00:00 655.40 0.00 72.3 77.0 --
07/17/2022 23:00 655.41 0.00 73.5 75.0 --
07/17/2022 22:00 655.41 0.00 75.6 76.0 --
07/17/2022 21:00 655.41 0.00 75.7 72.0 --
07/17/2022 20:00 655.41 0.00 83.6 50.0 --
07/17/2022 19:00 655.41 0.00 83.4 58.0 --
07/17/2022 18:00 655.41 0.00 84.2 54.0 --
07/17/2022 17:00 655.41 0.00 84.4 50.0 --
07/17/2022 16:00 655.42 0.00 82.0 52.0 --
07/17/2022 15:00 655.41 0.00 78.2 58.0 --
07/17/2022 14:00 655.41 0.00 81.3 52.0 --
07/17/2022 13:00 655.41 0.00 80.4 58.0 --
07/17/2022 12:00 655.42 0.00 78.6 63.0 --
07/17/2022 11:00 655.42 0.00 74.8 70.0 --
07/17/2022 10:00 655.42 0.00 73.0 81.0 --
07/17/2022 09:00 655.42 0.00 69.2 93.0 --
07/17/2022 08:00 655.42 0.00 65.5 100.0 --
07/17/2022 07:00 655.42 0.00 64.4 100.0 --
07/17/2022 06:00 655.42 0.00 63.5 100.0 --
07/17/2022 05:00 655.42 0.00 65.0 100.0 --
07/17/2022 04:00 655.41 0.00 67.6 93.0 --
07/17/2022 03:00 655.42 0.00 68.3 88.0 --
07/17/2022 02:00 655.42 0.00 69.2 80.0 --
07/17/2022 01:00 655.42 0.00 69.7 78.0 --
07/17/2022 00:00 655.41 0.00 69.1 80.0 --
07/16/2022 23:00 655.42 0.00 69.9 77.0 --
07/16/2022 22:00 655.42 0.00 70.1 71.0 --
07/16/2022 21:00 655.42 0.00 72.4 66.0 --
07/16/2022 20:00 655.41 0.00 77.3 53.0 --
07/16/2022 19:00 655.42 0.00 79.6 46.0 --
07/16/2022 18:00 655.42 0.00 79.8 45.0 --
07/16/2022 17:00 655.42 0.00 79.7 46.0 --
07/16/2022 16:00 655.42 0.00 79.0 44.0 --
07/16/2022 15:00 655.42 0.00 79.2 43.0 --
07/16/2022 14:00 655.44 0.00 78.0 48.0 --
07/16/2022 13:00 655.42 0.00 76.7 57.0 --
07/16/2022 12:00 655.42 0.00 73.8 64.0 --
07/16/2022 11:00 655.43 0.00 71.6 71.0 --
07/16/2022 10:00 655.43 0.00 67.6 81.0 --
07/16/2022 09:00 655.43 0.00 64.7 84.0 --
07/16/2022 08:00 655.43 0.00 61.0 97.0 --
07/16/2022 07:00 655.42 0.00 59.5 100.0 --
07/16/2022 06:00 655.43 0.00 59.2 100.0 --
07/16/2022 05:00 655.43 0.00 59.3 100.0 --
07/16/2022 04:00 655.43 0.00 59.6 98.0 --
07/16/2022 03:00 655.43 0.00 60.6 96.0 --
07/16/2022 02:00 655.43 0.00 61.2 92.0 --
07/16/2022 01:00 655.44 0.00 61.9 90.0 --
07/16/2022 00:00 655.43 0.00 63.8 82.0 --
07/15/2022 23:00 655.43 0.00 66.2 76.0 --
07/15/2022 22:00 655.44 0.00 65.4 78.0 --
07/15/2022 21:00 655.43 0.00 70.2 66.0 --
07/15/2022 20:00 655.44 0.01 76.7 51.0 --
07/15/2022 19:00 655.43 0.00 79.4 36.0 --
07/15/2022 18:00 655.44 0.00 79.2 37.0 --
07/15/2022 17:00 655.44 0.00 78.7 34.0 --
07/15/2022 16:00 655.44 0.00 77.9 32.0 --
07/15/2022 15:00 655.45 0.00 77.2 40.0 --
07/15/2022 14:00 655.44 0.00 74.3 40.0 --
07/15/2022 13:00 655.43 0.00 72.9 49.0 --
07/15/2022 12:00 655.45 0.00 72.8 53.0 --
07/15/2022 11:00 655.45 0.00 70.6 59.0 --
07/15/2022 10:00 655.43 0.00 68.5 60.0 --
07/15/2022 09:00 655.45 0.00 66.0 71.0 --
07/15/2022 08:00 655.45 0.00 60.2 90.0 --
07/15/2022 07:00 655.43 0.00 57.3 100.0 --
07/15/2022 06:00 655.44 0.00 58.1 98.0 --
07/15/2022 05:00 655.44 0.00 58.7 93.0 --
07/15/2022 04:00 655.44 0.00 59.0 96.0 --
07/15/2022 03:00 655.44 0.00 62.1 79.0 --
07/15/2022 02:00 655.45 0.00 62.3 80.0 --
07/15/2022 01:00 655.45 0.00 62.1 87.0 --
07/15/2022 00:00 655.45 0.00 63.5 87.0 --
07/14/2022 23:00 655.45 0.00 64.9 81.0 --
07/14/2022 22:00 655.45 0.00 66.2 81.0 --
07/14/2022 21:00 655.45 0.00 69.4 73.0 --
07/14/2022 20:00 655.44 0.00 77.0 55.0 --
07/14/2022 19:00 655.45 0.00 76.9 54.0 --
07/14/2022 18:00 655.44 0.00 76.4 61.0 --
07/14/2022 17:00 655.44 0.00 76.4 60.0 --
07/14/2022 16:00 655.45 0.00 74.3 63.0 --
07/14/2022 15:00 655.46 0.00 76.7 61.0 --
07/14/2022 14:00 655.46 0.00 74.6 67.0 --
07/14/2022 13:00 655.45 0.00 73.7 68.0 --
07/14/2022 12:00 655.46 0.00 73.1 70.0 --
07/14/2022 11:00 655.46 0.00 70.7 84.0 --
07/14/2022 10:00 655.45 0.00 70.0 91.0 --
07/14/2022 09:00 655.46 0.00 64.4 100.0 --
07/14/2022 08:00 655.46 0.00 62.1 100.0 --
07/14/2022 07:00 655.46 0.00 60.5 100.0 --
07/14/2022 06:00 655.45 0.00 61.3 100.0 --
07/14/2022 05:00 655.45 0.00 63.2 100.0 --
07/14/2022 04:00 655.45 0.02 63.4 100.0 --
07/14/2022 03:00 655.46 0.01 63.5 100.0 --
07/14/2022 02:00 655.46 0.00 64.8 92.0 --
07/14/2022 01:00 655.45 0.00 65.8 86.0 --
07/14/2022 00:00 655.46 0.00 66.2 84.0 --
07/13/2022 23:00 655.46 0.00 66.8 82.0 --
07/13/2022 22:00 655.46 0.00 67.4 80.0 --
07/13/2022 21:00 655.46 0.00 69.8 75.0 --
07/13/2022 20:00 655.46 0.00 75.4 63.0 --
07/13/2022 19:00 655.46 0.00 79.8 44.0 --
07/13/2022 18:00 655.46 0.00 77.1 64.0 --
07/13/2022 17:00 655.46 0.00 80.4 38.0 --
07/13/2022 16:00 655.47 0.00 79.5 45.0 --
07/13/2022 15:00 655.47 0.00 78.5 47.0 --
07/13/2022 14:00 655.46 0.00 77.2 48.0 --
07/13/2022 13:00 655.47 0.00 75.4 56.0 --
07/13/2022 12:00 655.46 0.00 73.6 62.0 --
07/13/2022 11:00 655.46 0.00 72.4 68.0 --
07/13/2022 10:00 655.47 0.00 70.6 79.0 --
07/13/2022 09:00 655.47 0.00 68.2 89.0 --
07/13/2022 08:00 655.47 0.00 65.0 100.0 --
07/13/2022 07:00 655.47 0.00 63.4 100.0 --
07/13/2022 06:00 655.46 0.00 64.2 100.0 --
07/13/2022 05:00 655.48 0.00 64.2 100.0 --
07/13/2022 04:00 655.47 0.00 64.9 100.0 --
07/13/2022 03:00 655.47 0.00 66.3 100.0 --
07/13/2022 02:00 655.47 0.00 67.4 100.0 --
07/13/2022 01:00 655.46 0.00 68.0 100.0 --
07/13/2022 00:00 655.46 0.00 68.1 100.0 --
07/12/2022 23:00 655.46 0.00 70.0 100.0 --
07/12/2022 22:00 655.46 0.00 70.6 100.0 --
07/12/2022 21:00 655.46 0.00 71.1 100.0 --
07/12/2022 20:00 655.43 0.26 70.9 100.0 --
07/12/2022 19:00 655.43 0.49 69.4 100.0 --
07/12/2022 18:00 655.39 0.00 83.8 57.0 --
07/12/2022 17:00 655.39 0.00 84.6 55.0 --
07/12/2022 16:00 655.42 0.00 83.6 54.0 --
07/12/2022 15:00 655.40 0.00 82.1 55.0 --
07/12/2022 14:00 655.37 0.00 81.5 57.0 --
07/12/2022 13:00 655.39 0.00 80.0 56.0 --
07/12/2022 12:00 655.40 0.00 78.3 58.0 --
07/12/2022 11:00 655.39 0.00 75.5 60.0 --
07/12/2022 10:00 655.39 0.00 71.3 68.0 --
07/12/2022 09:00 655.39 0.00 68.1 74.0 --
07/12/2022 08:00 655.38 0.00 67.6 74.0 --
07/12/2022 07:00 655.37 0.00 66.9 77.0 --
07/12/2022 06:00 655.39 0.00 67.4 74.0 --
07/12/2022 05:00 655.39 0.00 67.7 74.0 --
07/12/2022 04:00 655.39 0.00 67.9 74.0 --
07/12/2022 03:00 655.39 0.00 68.7 71.0 --
07/12/2022 02:00 655.39 0.00 69.9 66.0 --
07/12/2022 01:00 655.39 0.00 71.3 63.0 --
07/12/2022 00:00 655.39 0.00 73.1 59.0 --
07/11/2022 23:00 655.38 0.00 74.5 59.0 --
07/11/2022 22:00 655.39 0.00 69.2 68.0 --
07/11/2022 21:00 655.39 0.00 74.3 58.0 --
07/11/2022 20:00 655.38 0.00 81.9 39.0 --
07/11/2022 19:00 655.40 0.00 82.4 36.0 --
07/11/2022 18:00 655.39 0.00 81.8 37.0 --
07/11/2022 17:00 655.40 0.00 81.1 37.0 --
07/11/2022 16:00 655.41 0.00 80.0 38.0 --
07/11/2022 15:00 655.38 0.00 78.8 40.0 --
07/11/2022 14:00 655.39 0.00 78.3 40.0 --
07/11/2022 13:00 655.41 0.00 77.2 44.0 --
07/11/2022 12:00 655.40 0.00 75.0 48.0 --
07/11/2022 11:00 655.40 0.00 71.8 60.0 --
07/11/2022 10:00 655.40 0.00 67.5 68.0 --
07/11/2022 09:00 655.40 0.00 65.7 74.0 --
07/11/2022 08:00 655.40 0.00 58.3 99.0 --
07/11/2022 07:00 655.40 0.00 53.9 100.0 --
07/11/2022 06:00 655.39 0.00 55.9 100.0 --
07/11/2022 05:00 655.40 0.00 55.2 97.0 --
07/11/2022 04:00 655.39 0.00 56.6 94.0 --
07/11/2022 03:00 655.41 0.00 57.2 90.0 --
07/11/2022 02:00 655.41 0.00 57.5 86.0 --
07/11/2022 01:00 655.40 0.00 58.6 86.0 --
07/11/2022 00:00 655.40 0.00 60.3 77.0 --
07/10/2022 23:00 655.40 0.00 61.7 75.0 --
07/10/2022 22:00 655.40 0.00 64.7 66.0 --
07/10/2022 21:00 655.39 0.00 66.3 63.0 --
07/10/2022 20:00 655.40 0.00 76.3 39.0 --
07/10/2022 19:00 655.41 0.00 76.5 36.0 --
07/10/2022 18:00 655.41 0.00 76.6 35.0 --
07/10/2022 17:00 655.40 0.00 75.6 34.0 --
07/10/2022 16:00 655.40 0.00 74.7 34.0 --
07/10/2022 15:00 655.40 0.00 73.7 34.0 --
07/10/2022 14:00 655.41 0.00 74.1 33.0 --
07/10/2022 13:00 655.40 0.00 72.9 38.0 --
07/10/2022 12:00 655.40 0.00 70.5 44.0 --
07/10/2022 11:00 655.41 0.00 68.0 46.0 --
07/10/2022 10:00 655.41 0.00 65.9 50.0 --
07/10/2022 09:00 655.40 0.00 59.0 76.0 --
07/10/2022 08:00 655.41 0.00 54.0 85.0 --
07/10/2022 07:00 655.42 0.00 50.7 99.0 --
07/10/2022 06:00 655.42 0.00 51.0 94.0 --
07/10/2022 05:00 655.41 0.00 53.0 93.0 --
07/10/2022 04:00 655.41 0.00 54.7 85.0 --
07/10/2022 03:00 655.41 0.00 55.6 75.0 --
07/10/2022 02:00 655.41 0.00 55.1 80.0 --
07/10/2022 01:00 655.41 0.00 57.9 75.0 --
07/10/2022 00:00 655.41 0.00 57.8 78.0 --
07/09/2022 23:00 655.41 0.00 61.6 63.0 --
07/09/2022 22:00 655.41 0.00 64.7 65.0 --
07/09/2022 21:00 655.42 0.00 66.7 57.0 --
07/09/2022 20:00 655.41 0.00 75.3 34.0 --
07/09/2022 19:00 655.41 0.00 75.8 30.0 --
07/09/2022 18:00 655.42 0.00 75.3 29.0 --
07/09/2022 17:00 655.42 0.00 75.1 30.0 --
07/09/2022 16:00 655.42 0.00 75.1 35.0 --
07/09/2022 15:00 655.42 0.00 73.0 29.0 --
07/09/2022 14:00 655.43 0.00 70.5 37.0 --
07/09/2022 13:00 655.43 0.00 69.5 40.0 --
07/09/2022 12:00 655.43 0.00 68.7 44.0 --
07/09/2022 11:00 655.43 0.00 67.4 44.0 --
07/09/2022 10:00 655.42 0.00 65.8 54.0 --
07/09/2022 09:00 655.42 0.00 64.1 62.0 --
07/09/2022 08:00 655.43 0.00 60.5 71.0 --
07/09/2022 07:00 655.42 0.00 61.0 70.0 --
07/09/2022 06:00 655.42 0.00 59.8 74.0 --
07/09/2022 05:00 655.43 0.00 64.6 65.0 --
07/09/2022 04:00 655.43 0.00 61.7 79.0 --
07/09/2022 03:00 655.42 0.00 62.6 85.0 --
07/09/2022 02:00 655.42 0.00 64.9 79.0 --
07/09/2022 01:00 655.42 0.00 68.4 68.0 --
07/09/2022 00:00 655.42 0.00 72.1 66.0 --
07/08/2022 23:00 655.42 0.00 69.4 76.0 --
07/08/2022 22:00 655.42 0.00 70.6 79.0 --
07/08/2022 21:00 655.43 0.00 71.5 75.0 --
07/08/2022 20:00 655.42 0.00 78.5 53.0 --
07/08/2022 19:00 655.42 0.00 77.8 57.0 --
07/08/2022 18:00 655.43 0.00 79.8 42.0 --
07/08/2022 17:00 655.43 0.00 80.2 46.0 --
07/08/2022 16:00 655.43 0.00 79.3 49.0 --
07/08/2022 15:00 655.42 0.00 78.9 47.0 --
07/08/2022 14:00 655.43 0.00 78.0 49.0 --
07/08/2022 13:00 655.44 0.00 77.0 46.0 --
07/08/2022 12:00 655.45 0.00 75.3 49.0 --
07/08/2022 11:00 655.42 0.00 73.3 56.0 --
07/08/2022 10:00 655.43 0.00 70.8 70.0 --
07/08/2022 09:00 655.43 0.00 68.6 76.0 --
07/08/2022 08:00 655.44 0.00 65.7 82.0 --
07/08/2022 07:00 655.42 0.00 63.4 84.0 --
07/08/2022 06:00 655.44 0.00 63.8 80.0 --
07/08/2022 05:00 655.44 0.00 66.8 70.0 --
07/08/2022 04:00 655.44 0.00 67.5 66.0 --
07/08/2022 03:00 655.43 0.00 67.7 72.0 --
07/08/2022 02:00 655.44 0.00 66.2 72.0 --
07/08/2022 01:00 655.43 0.00 68.4 70.0 --
07/08/2022 00:00 655.43 0.00 68.4 74.0 --
07/07/2022 23:00 655.43 0.00 65.6 93.0 --
07/07/2022 22:00 655.42 0.00 66.9 88.0 --
07/07/2022 21:00 655.44 0.00 69.6 75.0 --
07/07/2022 20:00 655.43 0.00 75.5 61.0 --
07/07/2022 19:00 655.43 0.00 78.6 46.0 --
07/07/2022 18:00 655.45 0.00 79.5 42.0 --
07/07/2022 17:00 655.44 0.00 78.3 45.0 --
07/07/2022 16:00 655.44 0.00 76.3 47.0 --
07/07/2022 15:00 655.45 0.00 75.2 48.0 --
07/07/2022 14:00 655.45 0.00 75.6 50.0 --
07/07/2022 13:00 655.45 0.00 72.9 53.0 --
07/07/2022 12:00 655.44 0.00 71.4 53.0 --
07/07/2022 11:00 655.44 0.00 71.5 51.0 --
07/07/2022 10:00 655.44 0.00 69.4 74.0 --
07/07/2022 09:00 655.45 0.00 62.5 89.0 --
07/07/2022 08:00 655.44 0.00 58.0 100.0 --
07/07/2022 07:00 655.45 0.00 55.8 100.0 --
07/07/2022 06:00 655.44 0.00 55.7 100.0 --
07/07/2022 05:00 655.44 0.00 56.4 100.0 --
07/07/2022 04:00 655.45 0.00 57.0 100.0 --
07/07/2022 03:00 655.44 0.00 57.0 100.0 --
07/07/2022 02:00 655.45 0.00 58.1 100.0 --
07/07/2022 01:00 655.45 0.00 59.8 100.0 --
07/07/2022 00:00 655.44 0.00 61.9 94.0 --
07/06/2022 23:00 655.44 0.00 61.9 93.0 --
07/06/2022 22:00 655.45 0.00 64.8 79.0 --
07/06/2022 21:00 655.45 0.00 69.3 70.0 --
07/06/2022 20:00 655.44 0.00 73.8 55.0 --
07/06/2022 19:00 655.45 0.00 74.1 54.0 --
07/06/2022 18:00 655.45 0.00 72.7 57.0 --
07/06/2022 17:00 655.45 0.00 73.5 54.0 --
07/06/2022 16:00 655.46 0.00 72.6 58.0 --
07/06/2022 15:00 655.47 0.00 71.0 59.0 --
07/06/2022 14:00 655.44 0.00 71.2 61.0 --
07/06/2022 13:00 655.44 0.00 71.3 64.0 --
07/06/2022 12:00 655.45 0.00 71.1 67.0 --
07/06/2022 11:00 655.45 0.00 69.4 75.0 --
07/06/2022 10:00 655.45 0.00 69.7 86.0 --
07/06/2022 09:00 655.46 0.00 69.8 94.0 --
07/06/2022 08:00 655.45 0.04 69.1 100.0 --
07/06/2022 07:00 655.46 0.00 68.8 100.0 --
07/06/2022 06:00 655.46 0.00 68.9 100.0 --
07/06/2022 05:00 655.45 0.00 68.7 100.0 --
07/06/2022 04:00 655.47 0.00 68.7 100.0 --
07/06/2022 03:00 655.46 0.00 67.2 100.0 --
07/06/2022 02:00 655.45 0.01 67.0 100.0 --
07/06/2022 01:00 655.45 0.11 65.5 100.0 --
07/06/2022 00:00 655.44 0.07 65.4 100.0 --
07/05/2022 23:00 655.43 0.06 65.4 100.0 --
07/05/2022 22:00 655.43 0.03 64.5 100.0 --
07/05/2022 21:00 655.41 0.00 64.8 100.0 --
07/05/2022 20:00 655.41 0.00 65.2 100.0 --
07/05/2022 19:00 655.42 0.00 65.3 100.0 --
07/05/2022 18:00 655.42 0.01 65.2 100.0 --
07/05/2022 17:00 655.42 0.04 64.3 100.0 --
07/05/2022 16:00 655.42 0.07 63.8 100.0 --
07/05/2022 15:00 655.41 0.06 64.9 100.0 --
07/05/2022 14:00 655.40 0.00 67.0 86.0 --
07/05/2022 13:00 655.41 0.00 70.2 66.0 --
07/05/2022 12:00 655.41 0.00 71.9 58.0 --
07/05/2022 11:00 655.40 0.00 68.7 70.0 --
07/05/2022 10:00 655.41 0.00 66.0 76.0 --
07/05/2022 09:00 655.41 0.00 64.9 72.0 --
07/05/2022 08:00 655.40 0.00 62.0 81.0 --
07/05/2022 07:00 655.40 0.00 61.4 86.0 --
07/05/2022 06:00 655.41 0.00 60.9 89.0 --
07/05/2022 05:00 655.41 0.00 60.9 86.0 --
07/05/2022 04:00 655.40 0.00 61.2 89.0 --
07/05/2022 03:00 655.40 0.00 61.4 88.0 --
07/05/2022 02:00 655.41 0.00 61.3 90.0 --
07/05/2022 01:00 655.40 0.00 62.5 84.0 --
07/05/2022 00:00 655.41 0.00 64.3 80.0 --
07/04/2022 23:00 655.41 0.00 65.9 75.0 --
07/04/2022 22:00 655.40 0.00 67.7 66.0 --
07/04/2022 21:00 655.41 0.00 71.0 61.0 --
07/04/2022 20:00 655.41 0.00 74.6 44.0 --
07/04/2022 19:00 655.41 0.00 76.7 39.0 --
07/04/2022 18:00 655.40 0.00 76.7 35.0 --
07/04/2022 17:00 655.41 0.00 76.2 38.0 --
07/04/2022 16:00 655.41 0.00 75.6 39.0 --
07/04/2022 15:00 655.41 0.00 74.1 41.0 --
07/04/2022 14:00 655.39 0.00 74.1 38.0 --
07/04/2022 13:00 655.41 0.00 72.7 39.0 --
07/04/2022 12:00 655.41 0.00 70.8 46.0 --
07/04/2022 11:00 655.41 0.00 68.9 52.0 --
07/04/2022 10:00 655.41 0.00 68.0 58.0 --
07/04/2022 09:00 655.41 0.00 64.3 73.0 --
07/04/2022 08:00 655.41 0.00 57.9 87.0 --
07/04/2022 07:00 655.42 0.00 56.2 95.0 --
07/04/2022 06:00 655.42 0.00 56.2 95.0 --
07/04/2022 05:00 655.41 0.00 55.6 98.0 --
07/04/2022 04:00 655.42 0.00 56.7 93.0 --
07/04/2022 03:00 655.42 0.00 58.3 90.0 --
07/04/2022 02:00 655.41 0.00 59.7 90.0 --
07/04/2022 01:00 655.40 0.00 61.4 85.0 --
07/04/2022 00:00 655.42 0.00 63.2 80.0 --
07/03/2022 23:00 655.42 0.00 65.2 73.0 --
07/03/2022 22:00 655.41 0.00 66.5 73.0 --
07/03/2022 21:00 655.42 0.00 70.8 62.0 --
07/03/2022 20:00 655.42 0.00 78.7 42.0 --
07/03/2022 19:00 655.42 0.00 77.9 34.0 --
07/03/2022 18:00 655.41 0.00 78.2 33.0 --
07/03/2022 17:00 655.42 0.00 77.9 32.0 --
07/03/2022 16:00 655.43 0.00 78.2 30.0 --
07/03/2022 15:00 655.42 0.00 76.3 33.0 --
07/03/2022 14:00 655.44 0.00 75.4 33.0 --
07/03/2022 13:00 655.41 0.00 74.5 36.0 --
07/03/2022 12:00 655.41 0.00 71.2 49.0 --
07/03/2022 11:00 655.41 0.00 69.0 56.0 --
07/03/2022 10:00 655.42 0.00 67.8 64.0 --
07/03/2022 09:00 655.43 0.00 63.4 79.0 --
07/03/2022 08:00 655.43 0.00 61.1 88.0 --
07/03/2022 07:00 655.43 0.00 60.4 90.0 --
07/03/2022 06:00 655.42 0.00 60.9 85.0 --
07/03/2022 05:00 655.42 0.00 60.9 91.0 --
07/03/2022 04:00 655.42 0.00 61.0 91.0 --
07/03/2022 03:00 655.42 0.00 62.4 89.0 --
07/03/2022 02:00 655.43 0.00 64.0 85.0 --
07/03/2022 01:00 655.42 0.00 65.2 94.0 --
07/03/2022 00:00 655.42 0.00 66.7 91.0 --
07/02/2022 23:00 655.42 0.00 69.4 89.0 --
07/02/2022 22:00 655.42 0.00 69.3 92.0 --
07/02/2022 21:00 655.42 0.00 72.3 80.0 --
07/02/2022 20:00 655.42 0.00 75.8 70.0 --
07/02/2022 19:00 655.42 0.00 76.9 68.0 --
07/02/2022 18:00 655.45 0.00 82.0 47.0 --
07/02/2022 17:00 655.43 0.00 82.0 47.0 --
07/02/2022 16:00 655.41 0.00 80.9 50.0 --
07/02/2022 15:00 655.42 0.00 79.1 57.0 --
07/02/2022 14:00 655.44 0.00 77.1 62.0 --
07/02/2022 13:00 655.44 0.00 74.2 74.0 --
07/02/2022 12:00 655.43 0.00 70.4 87.0 --
07/02/2022 11:00 655.42 0.01 69.2 93.0 --
07/02/2022 10:00 655.42 0.00 69.7 92.0 --
07/02/2022 09:00 655.42 0.00 69.2 93.0 --
07/02/2022 08:00 655.43 0.00 68.4 100.0 --
07/02/2022 07:00 655.42 0.03 68.3 98.0 --
07/02/2022 06:00 655.42 0.00 72.3 77.0 --
07/02/2022 05:00 655.44 0.00 73.7 77.0 --
07/02/2022 04:00 655.41 0.00 74.3 75.0 --
07/02/2022 03:00 655.42 0.00 77.8 69.0 --
07/02/2022 02:00 655.43 0.00 79.1 70.0 --
07/02/2022 01:00 655.43 0.00 79.6 68.0 --
07/02/2022 00:00 655.42 0.00 80.0 71.0 --
07/01/2022 23:00 655.41 0.00 75.7 67.0 --
07/01/2022 22:00 655.42 0.00 74.8 66.0 --
07/01/2022 21:00 655.42 0.00 76.5 62.0 --
07/01/2022 20:00 655.42 0.00 85.8 41.0 --
07/01/2022 19:00 655.42 0.00 86.8 34.0 --
07/01/2022 18:00 655.44 0.00 87.2 36.0 --
07/01/2022 17:00 655.45 0.00 86.5 37.0 --
07/01/2022 16:00 655.43 0.00 85.1 39.0 --
07/01/2022 15:00 655.44 0.00 83.9 41.0 --
07/01/2022 14:00 655.45 0.00 84.3 43.0 --
07/01/2022 13:00 655.43 0.00 81.9 45.0 --
07/01/2022 12:00 655.44 0.00 79.7 52.0 --
07/01/2022 11:00 655.44 0.00 77.1 56.0 --
07/01/2022 10:00 655.43 0.00 73.6 67.0 --
07/01/2022 09:00 655.43 0.00 64.5 89.0 --
07/01/2022 08:00 655.44 0.00 60.2 96.0 --
07/01/2022 07:00 655.43 0.00 57.3 100.0 --
07/01/2022 06:00 655.44 0.00 58.1 98.0 --
07/01/2022 05:00 655.43 0.00 59.0 95.0 --
07/01/2022 04:00 655.43 0.00 58.4 91.0 --
07/01/2022 03:00 655.44 0.00 57.6 89.0 --
07/01/2022 02:00 655.44 0.00 59.5 87.0 --
07/01/2022 01:00 655.44 0.00 60.2 82.0 --
07/01/2022 00:00 655.44 0.00 61.8 78.0 --
06/30/2022 23:00 655.43 0.00 63.7 71.0 --
06/30/2022 22:00 655.42 0.00 65.8 73.0 --
06/30/2022 21:00 655.43 0.00 67.4 64.0 --
06/30/2022 20:00 655.44 0.00 74.1 54.0 --
06/30/2022 19:00 655.44 0.00 76.7 36.0 --
06/30/2022 18:00 655.43 0.00 75.1 37.0 --
06/30/2022 17:00 655.44 0.00 73.8 37.0 --
06/30/2022 16:00 655.44 0.00 73.6 40.0 --
06/30/2022 15:00 655.43 0.00 72.2 41.0 --
06/30/2022 14:00 655.44 0.00 71.7 42.0 --
06/30/2022 13:00 655.45 0.00 70.2 44.0 --
06/30/2022 12:00 655.43 0.00 68.2 47.0 --
06/30/2022 11:00 655.44 0.00 66.3 56.0 --
06/30/2022 10:00 655.44 0.00 64.9 66.0 --
06/30/2022 09:00 655.45 0.00 62.2 82.0 --
06/30/2022 08:00 655.45 0.00 56.1 100.0 --
06/30/2022 07:00 655.45 0.00 54.7 100.0 --
06/30/2022 06:00 655.44 0.00 54.5 100.0 --
06/30/2022 05:00 655.44 0.00 55.4 100.0 --
06/30/2022 04:00 655.43 0.00 57.3 100.0 --
06/30/2022 03:00 655.43 0.00 58.1 100.0 --
06/30/2022 02:00 655.45 0.00 59.8 100.0 --
06/30/2022 01:00 655.44 0.00 60.2 100.0 --
06/30/2022 00:00 655.44 0.00 61.0 99.0 --
06/29/2022 23:00 655.44 0.01 61.8 100.0 --
06/29/2022 22:00 655.45 0.03 62.1 97.0 --
06/29/2022 21:00 655.44 0.00 69.2 75.0 --
06/29/2022 20:00 655.44 0.00 72.1 67.0 --
06/29/2022 19:00 655.43 0.00 77.2 44.0 --
06/29/2022 18:00 655.43 0.00 78.3 41.0 --
06/29/2022 17:00 655.43 0.00 77.5 41.0 --
06/29/2022 16:00 655.45 0.00 77.7 38.0 --
06/29/2022 15:00 655.44 0.00 76.6 38.0 --
06/29/2022 14:00 655.44 0.00 75.3 44.0 --
06/29/2022 13:00 655.46 0.00 74.5 40.0 --
06/29/2022 12:00 655.45 0.00 73.1 46.0 --
06/29/2022 11:00 655.45 0.00 72.4 52.0 --
06/29/2022 10:00 655.44 0.00 66.5 76.0 --
06/29/2022 09:00 655.44 0.00 60.2 94.0 --
06/29/2022 08:00 655.45 0.00 55.2 100.0 --
06/29/2022 07:00 655.44 0.00 54.7 100.0 --
06/29/2022 06:00 655.45 0.00 55.1 100.0 --
06/29/2022 05:00 655.45 0.00 55.8 100.0 --
06/29/2022 04:00 655.45 0.00 56.3 100.0 --
06/29/2022 03:00 655.44 0.00 56.8 99.0 --
06/29/2022 02:00 655.44 0.00 57.8 97.0 --
06/29/2022 01:00 655.45 0.00 58.5 92.0 --
06/29/2022 00:00 655.44 0.00 60.4 87.0 --
06/28/2022 23:00 655.45 0.00 62.4 80.0 --
06/28/2022 22:00 655.45 0.00 62.9 79.0 --
06/28/2022 21:00 655.45 0.00 68.4 68.0 --
06/28/2022 20:00 655.44 0.00 75.0 46.0 --
06/28/2022 19:00 655.45 0.00 74.5 44.0 --
06/28/2022 18:00 655.44 0.00 74.4 44.0 --
06/28/2022 17:00 655.46 0.00 73.2 44.0 --
06/28/2022 16:00 655.46 0.00 73.2 44.0 --
06/28/2022 15:00 655.46 0.00 71.1 45.0 --
06/28/2022 14:00 655.44 0.00 71.3 48.0 --
06/28/2022 13:00 655.46 0.00 69.9 51.0 --
06/28/2022 12:00 655.45 0.00 68.3 60.0 --
06/28/2022 11:00 655.47 0.00 67.0 60.0 --
06/28/2022 10:00 655.46 0.00 65.1 67.0 --
06/28/2022 09:00 655.46 0.00 62.0 74.0 --
06/28/2022 08:00 655.45 0.00 58.6 80.0 --
06/28/2022 07:00 655.45 0.00 55.3 88.0 --
06/28/2022 06:00 655.45 0.00 53.7 95.0 --
06/28/2022 05:00 655.46 0.00 54.5 91.0 --
06/28/2022 04:00 655.46 0.00 56.4 82.0 --
06/28/2022 03:00 655.46 0.00 56.2 77.0 --
06/28/2022 02:00 655.45 0.00 58.8 72.0 --
06/28/2022 01:00 655.45 0.00 64.8 55.0 --
06/28/2022 00:00 655.47 0.00 67.8 48.0 --
06/27/2022 23:00 655.46 0.00 70.2 52.0 --
06/27/2022 22:00 655.47 0.00 71.0 68.0 --
06/27/2022 21:00 655.47 0.00 73.6 62.0 --
06/27/2022 20:00 655.47 0.00 75.0 60.0 --
06/27/2022 19:00 655.47 0.00 77.1 55.0 --
06/27/2022 18:00 655.46 0.00 78.8 49.0 --
06/27/2022 17:00 655.46 0.00 76.9 72.0 --
06/27/2022 16:00 655.48 0.00 74.9 79.0 --
06/27/2022 15:00 655.47 0.00 73.5 86.0 --
06/27/2022 14:00 655.47 0.00 72.6 87.0 --
06/27/2022 13:00 655.47 0.00 72.3 88.0 --
06/27/2022 12:00 655.47 0.05 70.3 94.0 --
06/27/2022 11:00 655.46 0.00 71.4 83.0 --
06/27/2022 10:00 655.46 0.00 71.5 78.0 --
06/27/2022 09:00 655.48 0.00 71.3 76.0 --
06/27/2022 08:00 655.48 0.00 71.1 73.0 --
06/27/2022 07:00 655.46 0.00 70.9 69.0 --
06/27/2022 06:00 655.47 0.00 68.9 71.0 --
06/27/2022 05:00 655.47 0.00 70.8 65.0 --
06/27/2022 04:00 655.47 0.00 71.3 61.0 --
06/27/2022 03:00 655.47 0.00 72.8 58.0 --
06/27/2022 02:00 655.47 0.00 74.2 57.0 --
06/27/2022 01:00 655.47 0.00 75.9 58.0 --
06/27/2022 00:00 655.47 0.00 77.0 62.0 --
06/26/2022 23:00 655.46 0.00 77.8 65.0 --
06/26/2022 22:00 655.47 0.00 79.4 62.0 --
06/26/2022 21:00 655.47 0.00 79.6 59.0 --
06/26/2022 20:00 655.47 0.00 85.4 45.0 --
06/26/2022 19:00 655.48 0.00 87.7 40.0 --
06/26/2022 18:00 655.46 0.00 87.9 38.0 --
06/26/2022 17:00 655.48 0.00 86.6 41.0 --
06/26/2022 16:00 655.47 0.00 87.2 39.0 --
06/26/2022 15:00 655.47 0.00 85.1 41.0 --
06/26/2022 14:00 655.48 0.00 84.8 41.0 --
06/26/2022 13:00 655.48 0.00 83.8 44.0 --
06/26/2022 12:00 655.49 0.00 82.3 52.0 --
06/26/2022 11:00 655.49 0.00 79.5 69.0 --
06/26/2022 10:00 655.49 0.00 72.0 82.0 --
06/26/2022 09:00 655.48 0.00 67.5 96.0 --
06/26/2022 08:00 655.48 0.00 63.9 100.0 --
06/26/2022 07:00 655.48 0.00 62.5 100.0 --
06/26/2022 06:00 655.48 0.00 63.0 100.0 --
06/26/2022 05:00 655.49 0.00 63.3 100.0 --
06/26/2022 04:00 655.49 0.00 64.1 100.0 --
06/26/2022 03:00 655.49 0.00 65.0 100.0 --
06/26/2022 02:00 655.48 0.00 65.4 100.0 --
06/26/2022 01:00 655.49 0.00 66.5 97.0 --
06/26/2022 00:00 655.49 0.00 67.9 92.0 --
06/25/2022 23:00 655.48 0.00 69.7 85.0 --
06/25/2022 22:00 655.49 0.00 71.6 84.0 --
06/25/2022 21:00 655.49 0.00 76.8 72.0 --
06/25/2022 20:00 655.49 0.00 79.5 62.0 --
06/25/2022 19:00 655.49 0.00 84.6 53.0 --
06/25/2022 18:00 655.49 0.00 86.1 39.0 --
06/25/2022 17:00 655.50 0.00 84.8 37.0 --
06/25/2022 16:00 655.49 0.00 84.4 39.0 --
06/25/2022 15:00 655.50 0.00 82.0 43.0 --
06/25/2022 14:00 655.49 0.01 80.9 46.0 --
06/25/2022 13:00 655.49 0.00 79.6 48.0 --
06/25/2022 12:00 655.50 0.00 76.8 48.0 --
06/25/2022 11:00 655.50 0.00 75.3 53.0 --
06/25/2022 10:00 655.49 0.00 69.1 76.0 --
06/25/2022 09:00 655.50 0.00 62.7 88.0 --
06/25/2022 08:00 655.50 0.00 58.5 98.0 --
06/25/2022 07:00 655.50 0.00 56.3 100.0 --
06/25/2022 06:00 655.51 0.00 56.4 100.0 --
06/25/2022 05:00 655.50 0.00 56.6 100.0 --
06/25/2022 04:00 655.50 0.00 57.8 100.0 --
06/25/2022 03:00 655.50 0.00 58.8 100.0 --
06/25/2022 02:00 655.50 0.00 59.9 100.0 --
06/25/2022 01:00 655.50 0.00 61.0 100.0 --
06/25/2022 00:00 655.50 0.00 62.6 100.0 --
06/24/2022 23:00 655.50 0.00 64.3 97.0 --
06/24/2022 22:00 655.50 0.00 66.5 91.0 --
06/24/2022 21:00 655.51 0.00 69.4 87.0 --
06/24/2022 20:00 655.50 0.00 72.3 80.0 --
06/24/2022 19:00 655.50 0.00 75.6 71.0 --
06/24/2022 18:00 655.50 0.00 78.8 56.0 --
06/24/2022 17:00 655.50 0.00 76.6 59.0 --
06/24/2022 16:00 655.50 0.00 75.9 60.0 --
06/24/2022 15:00 655.52 0.00 74.0 65.0 --
06/24/2022 14:00 655.51 0.00 70.8 72.0 --
06/24/2022 13:00 655.50 0.00 69.4 81.0 --
06/24/2022 12:00 655.51 0.00 65.9 100.0 --
06/24/2022 11:00 655.50 0.00 64.1 100.0 --
06/24/2022 10:00 655.51 0.00 63.0 100.0 --
06/24/2022 09:00 655.51 0.00 60.8 100.0 --
06/24/2022 08:00 655.50 0.00 59.5 100.0 --
06/24/2022 07:00 655.51 0.00 58.6 100.0 --
06/24/2022 06:00 655.50 0.00 58.6 100.0 --
06/24/2022 05:00 655.51 0.00 58.5 100.0 --
06/24/2022 04:00 655.51 0.01 58.6 100.0 --
06/24/2022 03:00 655.51 0.03 58.7 100.0 --
06/24/2022 02:00 655.50 0.01 58.7 100.0 --
06/24/2022 01:00 655.49 0.01 59.3 100.0 --
06/24/2022 00:00 655.49 0.09 59.8 100.0 --
06/23/2022 23:00 655.50 0.05 60.3 100.0 --
06/23/2022 22:00 655.48 0.21 62.3 100.0 --
06/23/2022 21:00 655.46 0.00 67.7 73.0 --
06/23/2022 20:00 655.47 0.00 68.7 75.0 --
06/23/2022 19:00 655.46 0.00 70.1 67.0 --
06/23/2022 18:00 655.46 0.00 72.3 65.0 --
06/23/2022 17:00 655.48 0.00 74.6 52.0 --
06/23/2022 16:00 655.47 0.00 72.0 60.0 --
06/23/2022 15:00 655.48 0.00 70.4 61.0 --
06/23/2022 14:00 655.48 0.00 70.1 61.0 --
06/23/2022 13:00 655.47 0.00 67.6 69.0 --
06/23/2022 12:00 655.48 0.00 66.7 70.0 --
06/23/2022 11:00 655.47 0.00 63.6 77.0 --
06/23/2022 10:00 655.47 0.00 61.4 83.0 --
06/23/2022 09:00 655.47 0.00 60.0 90.0 --
06/23/2022 08:00 655.47 0.00 58.1 100.0 --
06/23/2022 07:00 655.47 0.00 56.2 100.0 --
06/23/2022 06:00 655.46 0.00 56.2 100.0 --
06/23/2022 05:00 655.47 0.00 57.6 100.0 --
06/23/2022 04:00 655.48 0.00 57.9 100.0 --
06/23/2022 03:00 655.47 0.00 57.8 100.0 --
06/23/2022 02:00 655.47 0.00 58.2 99.0 --
06/23/2022 01:00 655.47 0.00 58.6 97.0 --
06/23/2022 00:00 655.47 0.00 57.1 99.0 --
06/22/2022 23:00 655.47 0.00 56.9 94.0 --
06/22/2022 22:00 655.47 0.00 60.3 82.0 --
06/22/2022 21:00 655.48 0.00 63.0 72.0 --
06/22/2022 20:00 655.48 0.00 64.8 64.0 --
06/22/2022 19:00 655.46 0.00 67.0 59.0 --
06/22/2022 18:00 655.47 0.00 68.0 63.0 --
06/22/2022 17:00 655.47 0.00 65.5 72.0 --
06/22/2022 16:00 655.48 0.00 64.1 78.0 --
06/22/2022 15:00 655.47 0.00 62.5 84.0 --
06/22/2022 14:00 655.47 0.00 60.8 94.0 --
06/22/2022 13:00 655.48 0.00 60.4 95.0 --
06/22/2022 12:00 655.47 0.00 58.7 100.0 --
06/22/2022 11:00 655.46 0.00 59.0 97.0 --
06/22/2022 10:00 655.47 0.00 59.4 95.0 --
06/22/2022 09:00 655.47 0.00 58.8 93.0 --
06/22/2022 08:00 655.46 0.00 58.4 92.0 --
06/22/2022 07:00 655.47 0.00 58.4 90.0 --
06/22/2022 06:00 655.47 0.00 58.8 87.0 --
06/22/2022 05:00 655.46 0.00 59.5 83.0 --
06/22/2022 04:00 655.47 0.00 60.5 77.0 --
06/22/2022 03:00 655.47 0.00 61.3 75.0 --
06/22/2022 02:00 655.46 0.00 62.3 75.0 --
06/22/2022 01:00 655.47 0.00 61.7 76.0 --
06/22/2022 00:00 655.47 0.00 62.9 71.0 --
06/21/2022 23:00 655.47 0.00 65.2 65.0 --
06/21/2022 22:00 655.47 0.00 64.8 64.0 --
06/21/2022 21:00 655.47 0.00 69.0 49.0 --
06/21/2022 20:00 655.48 0.00 71.0 54.0 --
06/21/2022 19:00 655.47 0.00 72.7 42.0 --
06/21/2022 18:00 655.48 0.00 75.5 30.0 --
06/21/2022 17:00 655.47 0.00 75.8 26.0 --
06/21/2022 16:00 655.47 0.00 74.7 27.0 --
06/21/2022 15:00 655.48 0.00 73.0 30.0 --
06/21/2022 14:00 655.48 0.00 71.3 36.0 --
06/21/2022 13:00 655.48 0.00 71.7 37.0 --
06/21/2022 12:00 655.48 0.00 69.7 41.0 --
06/21/2022 11:00 655.48 0.00 66.0 54.0 --
06/21/2022 10:00 655.48 0.00 60.6 65.0 --
06/21/2022 09:00 655.47 0.00 53.7 83.0 --
06/21/2022 08:00 655.48 0.00 49.3 95.0 --
06/21/2022 07:00 655.48 0.00 47.6 100.0 --
06/21/2022 06:00 655.48 0.00 48.2 97.0 --
06/21/2022 05:00 655.48 0.00 49.4 94.0 --
06/21/2022 04:00 655.48 0.00 50.1 88.0 --
06/21/2022 03:00 655.47 0.00 52.1 83.0 --
06/21/2022 02:00 655.47 0.00 54.0 81.0 --
06/21/2022 01:00 655.48 0.00 54.3 78.0 --
06/21/2022 00:00 655.48 0.00 57.6 69.0 --
06/20/2022 23:00 655.47 0.00 58.3 64.0 --
06/20/2022 22:00 655.46 0.00 62.3 60.0 --
06/20/2022 21:00 655.46 0.00 65.6 49.0 --
06/20/2022 20:00 655.47 0.00 72.5 31.0 --
06/20/2022 19:00 655.47 0.00 74.2 31.0 --
06/20/2022 18:00 655.46 0.00 73.0 30.0 --
06/20/2022 17:00 655.47 0.00 72.7 30.0 --
06/20/2022 16:00 655.48 0.00 71.6 30.0 --
06/20/2022 15:00 655.46 0.00 70.7 30.0 --
06/20/2022 14:00 655.47 0.00 69.3 32.0 --
06/20/2022 13:00 655.47 0.00 67.6 31.0 --
06/20/2022 12:00 655.50 0.00 65.6 38.0 --
06/20/2022 11:00 655.48 0.00 64.0 43.0 --
06/20/2022 10:00 655.48 0.00 61.8 47.0 --
06/20/2022 09:00 655.48 0.00 55.4 71.0 --
06/20/2022 08:00 655.47 0.00 49.1 88.0 --
06/20/2022 07:00 655.48 0.00 47.6 91.0 --
06/20/2022 06:00 655.48 0.00 47.4 89.0 --
06/20/2022 05:00 655.48 0.00 48.1 87.0 --
06/20/2022 04:00 655.47 0.00 49.5 87.0 --
06/20/2022 03:00 655.48 0.00 50.4 85.0 --
06/20/2022 02:00 655.48 0.00 50.3 89.0 --
06/20/2022 01:00 655.48 0.00 52.5 84.0 --
06/20/2022 00:00 655.49 0.00 53.7 81.0 --
06/19/2022 23:00 655.48 0.00 54.2 77.0 --
06/19/2022 22:00 655.48 0.00 54.5 79.0 --
06/19/2022 21:00 655.48 0.00 57.6 67.0 --
06/19/2022 20:00 655.48 0.00 57.5 64.0 --
06/19/2022 19:00 655.49 0.00 58.4 58.0 --
06/19/2022 18:00 655.48 0.00 60.0 44.0 --
06/19/2022 17:00 655.46 0.00 60.3 42.0 --
06/19/2022 16:00 655.46 0.00 59.5 43.0 --
06/19/2022 15:00 655.45 0.00 59.4 44.0 --
06/19/2022 14:00 655.44 0.00 59.0 45.0 --
06/19/2022 13:00 655.49 0.00 58.0 48.0 --
06/19/2022 12:00 655.48 0.01 56.5 50.0 --
06/19/2022 11:00 655.51 0.00 56.5 49.0 --
06/19/2022 10:00 655.47 0.00 53.5 59.0 --
06/19/2022 09:00 655.48 0.00 52.0 63.0 --
06/19/2022 08:00 655.48 0.00 51.6 68.0 --
06/19/2022 07:00 655.48 0.00 51.7 73.0 --
06/19/2022 06:00 655.49 0.00 50.6 79.0 --
06/19/2022 05:00 655.48 0.00 50.6 82.0 --
06/19/2022 04:00 655.49 0.01 51.1 80.0 --
06/19/2022 03:00 655.49 0.00 51.6 81.0 --
06/19/2022 02:00 655.47 0.00 51.8 76.0 --
06/19/2022 01:00 655.48 0.00 52.1 75.0 --
06/19/2022 00:00 655.46 0.00 51.6 79.0 --
06/18/2022 23:00 655.50 0.00 51.4 79.0 --
06/18/2022 22:00 -- -- -- -- --
06/18/2022 21:00 -- -- -- -- --
06/18/2022 20:00 -- -- -- -- --
06/18/2022 19:00 -- -- -- -- --
06/18/2022 18:00 -- -- -- -- --
06/18/2022 17:00 -- -- -- -- --